Time,TemperatureF,DewpointF,PressureIn,WindDirection,WindDirectionDegrees,WindSpeedMPH,WindSpeedGustMPH,Humidity,HourlyPrecipIn,Conditions,Clouds,dailyrainin,SoftwareType,DateUTC
2017-02-20 00:00:00,42.7,40.3,30.10,North,353,0.0,0.0,91,0.00,,,0.01,Wunderground v.1.15,2017-02-20 05:00:00,
2017-02-20 00:10:00,42.5,40.3,30.10,North,353,0.0,0.0,92,0.00,,,0.00,Wunderground v.1.15,2017-02-20 05:10:00,
2017-02-20 00:15:00,42.5,40.3,30.11,North,353,0.0,0.0,92,0.00,,,0.00,Wunderground v.1.15,2017-02-20 05:15:00,
2017-02-20 00:20:00,42.4,40.2,30.11,North,353,0.0,0.0,92,0.00,,,0.00,Wunderground v.1.15,2017-02-20 05:20:00,
2017-02-20 00:30:00,42.1,39.9,30.11,North,353,0.0,0.0,92,0.00,,,0.00,Wunderground v.1.15,2017-02-20 05:30:00,
2017-02-20 00:35:00,42.0,39.6,30.12,North,353,0.0,0.0,91,0.00,,,0.00,Wunderground v.1.15,2017-02-20 05:35:00,
2017-02-20 00:40:00,41.7,39.5,30.11,North,353,0.0,0.0,92,0.00,,,0.00,Wunderground v.1.15,2017-02-20 05:40:00,
2017-02-20 00:45:00,41.7,39.5,30.12,North,353,0.0,0.0,92,0.00,,,0.00,Wunderground v.1.15,2017-02-20 05:45:00,
2017-02-20 00:50:00,41.5,39.1,30.12,North,353,0.0,0.0,91,0.00,,,0.00,Wunderground v.1.15,2017-02-20 05:50:00,
2017-02-20 01:00:00,41.3,39.2,30.11,North,353,0.0,0.0,92,0.00,,,0.00,Wunderground v.1.15,2017-02-20 06:00:00,
2017-02-20 01:10:00,41.3,39.4,30.11,North,353,0.0,0.0,93,0.00,,,0.00,Wunderground v.1.15,2017-02-20 06:10:00,
2017-02-20 01:15:00,41.2,39.3,30.11,North,353,0.0,0.0,93,0.00,,,0.00,Wunderground v.1.15,2017-02-20 06:15:00,
2017-02-20 01:20:00,41.1,39.2,30.11,North,353,0.0,0.0,93,0.00,,,0.00,Wunderground v.1.15,2017-02-20 06:20:00,
2017-02-20 01:25:00,40.8,38.7,30.12,North,353,0.0,0.0,92,0.00,,,0.00,Wunderground v.1.15,2017-02-20 06:25:00,
2017-02-20 01:35:00,40.4,38.5,30.12,North,353,0.0,0.0,93,0.00,,,0.00,Wunderground v.1.15,2017-02-20 06:35:00,
2017-02-20 01:40:00,40.2,38.3,30.12,North,353,0.0,0.0,93,0.00,,,0.00,Wunderground v.1.15,2017-02-20 06:40:00,
2017-02-20 01:45:00,40.1,38.2,30.12,North,353,0.0,0.0,93,0.00,,,0.00,Wunderground v.1.15,2017-02-20 06:45:00,
2017-02-20 01:50:00,40.0,38.1,30.12,North,353,0.0,0.0,93,0.00,,,0.00,Wunderground v.1.15,2017-02-20 06:50:00,
2017-02-20 01:55:00,39.9,38.0,30.13,North,353,0.0,0.0,93,0.00,,,0.00,Wunderground v.1.15,2017-02-20 06:55:00,
2017-02-20 02:00:00,39.7,37.8,30.13,North,353,0.0,0.0,93,0.00,,,0.00,Wunderground v.1.15,2017-02-20 07:00:00,
2017-02-20 02:10:00,39.5,37.9,30.13,North,353,0.0,0.0,94,0.00,,,0.00,Wunderground v.1.15,2017-02-20 07:10:00,
2017-02-20 02:15:00,39.3,37.7,30.13,North,353,0.0,0.0,94,0.00,,,0.00,Wunderground v.1.15,2017-02-20 07:15:00,
2017-02-20 02:20:00,39.2,37.6,30.13,North,353,0.0,0.0,94,0.00,,,0.00,Wunderground v.1.15,2017-02-20 07:20:00,
2017-02-20 02:25:00,39.1,37.5,30.13,North,353,0.0,0.0,94,0.00,,,0.00,Wunderground v.1.15,2017-02-20 07:25:00,
2017-02-20 02:30:00,39.0,37.4,30.13,North,353,0.0,0.0,94,0.00,,,0.00,Wunderground v.1.15,2017-02-20 07:30:00,
2017-02-20 02:40:00,38.9,37.3,30.13,North,353,0.0,0.0,94,0.00,,,0.00,Wunderground v.1.15,2017-02-20 07:40:00,
2017-02-20 02:45:00,38.8,37.2,30.13,North,353,0.0,0.0,94,0.00,,,0.00,Wunderground v.1.15,2017-02-20 07:45:00,
2017-02-20 02:50:00,38.7,37.1,30.13,North,353,0.0,0.0,94,0.00,,,0.00,Wunderground v.1.15,2017-02-20 07:50:00,
2017-02-20 03:00:00,38.4,36.8,30.13,North,353,0.0,0.0,94,0.00,,,0.00,Wunderground v.1.15,2017-02-20 08:00:00,
2017-02-20 03:10:00,38.3,36.7,30.13,North,353,0.0,0.0,94,0.00,,,0.00,Wunderground v.1.15,2017-02-20 08:10:00,
2017-02-20 03:15:00,38.2,36.6,30.12,North,353,0.0,0.0,94,0.00,,,0.00,Wunderground v.1.15,2017-02-20 08:15:00,
2017-02-20 03:20:00,38.1,36.5,30.12,North,353,0.0,0.0,94,0.00,,,0.00,Wunderground v.1.15,2017-02-20 08:20:00,
2017-02-20 03:25:00,38.0,36.4,30.12,North,353,0.0,0.0,94,0.00,,,0.00,Wunderground v.1.15,2017-02-20 08:25:00,
2017-02-20 03:30:00,37.9,36.3,30.12,North,353,0.0,0.0,94,0.00,,,0.00,Wunderground v.1.15,2017-02-20 08:30:00,
2017-02-20 03:35:00,37.7,36.1,30.12,North,353,0.0,0.0,94,0.00,,,0.00,Wunderground v.1.15,2017-02-20 08:35:00,
2017-02-20 03:45:00,37.4,35.8,30.12,North,353,0.0,0.0,94,0.00,,,0.00,Wunderground v.1.15,2017-02-20 08:45:00,
2017-02-20 03:50:00,37.2,35.6,30.12,North,353,0.0,0.0,94,0.00,,,0.00,Wunderground v.1.15,2017-02-20 08:50:00,
2017-02-20 03:55:00,37.3,36.0,30.12,North,353,0.0,0.0,95,0.00,,,0.00,Wunderground v.1.15,2017-02-20 08:55:00,
2017-02-20 04:00:00,37.2,35.9,30.12,North,353,0.0,0.0,95,0.00,,,0.00,Wunderground v.1.15,2017-02-20 09:00:00,
2017-02-20 04:10:00,37.1,35.8,30.12,North,353,0.0,0.0,95,0.00,,,0.00,Wunderground v.1.15,2017-02-20 09:10:00,
2017-02-20 04:15:00,36.9,35.6,30.12,North,353,0.0,0.0,95,0.00,,,0.00,Wunderground v.1.15,2017-02-20 09:15:00,
2017-02-20 04:20:00,37.0,35.7,30.13,North,353,0.0,0.0,95,0.00,,,0.00,Wunderground v.1.15,2017-02-20 09:20:00,
2017-02-20 04:25:00,36.9,35.6,30.13,North,353,0.0,0.0,95,0.00,,,0.00,Wunderground v.1.15,2017-02-20 09:25:00,
2017-02-20 04:30:00,36.8,35.5,30.13,North,353,0.0,0.0,95,0.00,,,0.00,Wunderground v.1.15,2017-02-20 09:30:00,
2017-02-20 04:35:00,36.7,35.4,30.13,North,353,0.0,0.0,95,0.00,,,0.00,Wunderground v.1.15,2017-02-20 09:35:00,
2017-02-20 04:40:00,36.6,35.3,30.13,North,353,0.0,0.0,95,0.00,,,0.00,Wunderground v.1.15,2017-02-20 09:40:00,
2017-02-20 04:50:00,36.4,35.1,30.13,North,353,0.0,0.0,95,0.00,,,0.00,Wunderground v.1.15,2017-02-20 09:50:00,
2017-02-20 04:55:00,36.3,35.0,30.13,North,353,0.0,0.0,95,0.00,,,0.00,Wunderground v.1.15,2017-02-20 09:55:00,
2017-02-20 05:00:00,36.2,34.9,30.13,North,353,0.0,0.0,95,0.00,,,0.00,Wunderground v.1.15,2017-02-20 10:00:00,
2017-02-20 05:10:00,36.2,34.9,30.14,North,353,0.0,0.0,95,0.00,,,0.00,Wunderground v.1.15,2017-02-20 10:10:00,
2017-02-20 05:20:00,35.9,34.6,30.15,North,353,0.0,0.0,95,0.00,,,0.00,Wunderground v.1.15,2017-02-20 10:20:00,
2017-02-20 05:25:00,35.8,34.5,30.14,North,353,0.0,0.0,95,0.00,,,0.00,Wunderground v.1.15,2017-02-20 10:25:00,
2017-02-20 05:30:00,35.9,34.6,30.14,North,353,0.0,0.0,95,0.00,,,0.00,Wunderground v.1.15,2017-02-20 10:30:00,
2017-02-20 05:35:00,36.2,35.2,30.14,North,353,0.0,0.0,96,0.00,,,0.00,Wunderground v.1.15,2017-02-20 10:35:00,
2017-02-20 05:40:00,36.4,35.4,30.14,North,353,0.0,0.0,96,0.00,,,0.00,Wunderground v.1.15,2017-02-20 10:40:00,
2017-02-20 05:45:00,36.8,35.8,30.14,North,353,0.0,0.0,96,0.00,,,0.00,Wunderground v.1.15,2017-02-20 10:45:00,
2017-02-20 05:50:00,36.9,35.9,30.14,North,353,0.0,0.0,96,0.00,,,0.00,Wunderground v.1.15,2017-02-20 10:50:00,
2017-02-20 05:55:00,36.7,35.4,30.14,North,353,0.0,0.0,95,0.00,,,0.00,Wunderground v.1.15,2017-02-20 10:55:00,
2017-02-20 06:00:00,36.3,35.0,30.15,North,353,0.0,0.0,95,0.00,,,0.00,Wunderground v.1.15,2017-02-20 11:00:00,
2017-02-20 06:10:00,35.5,34.2,30.15,North,353,0.0,0.0,95,0.00,,,0.00,Wunderground v.1.15,2017-02-20 11:10:00,
2017-02-20 06:15:00,35.3,34.0,30.15,North,353,0.0,0.0,95,0.00,,,0.00,Wunderground v.1.15,2017-02-20 11:15:00,
2017-02-20 06:25:00,34.9,33.6,30.16,North,353,0.0,0.0,95,0.00,,,0.00,Wunderground v.1.15,2017-02-20 11:25:00,
2017-02-20 06:30:00,34.8,33.5,30.16,North,353,0.0,0.0,95,0.00,,,0.00,Wunderground v.1.15,2017-02-20 11:30:00,
2017-02-20 06:35:00,34.7,33.4,30.16,North,353,0.0,0.0,95,0.00,,,0.00,Wunderground v.1.15,2017-02-20 11:35:00,
2017-02-20 06:40:00,34.9,33.9,30.16,North,353,0.0,0.0,96,0.00,,,0.00,Wunderground v.1.15,2017-02-20 11:40:00,
2017-02-20 06:45:00,34.9,33.9,30.16,North,353,0.0,0.0,96,0.00,,,0.00,Wunderground v.1.15,2017-02-20 11:45:00,
2017-02-20 06:55:00,34.8,33.5,30.16,North,353,0.0,0.0,95,0.00,,,0.00,Wunderground v.1.15,2017-02-20 11:55:00,
2017-02-20 07:00:00,34.7,33.4,30.17,North,353,0.0,0.0,95,0.00,,,0.00,Wunderground v.1.15,2017-02-20 12:00:00,
2017-02-20 07:10:00,34.5,33.2,30.17,North,353,0.0,0.0,95,0.00,,,0.00,Wunderground v.1.15,2017-02-20 12:10:00,
2017-02-20 07:15:00,34.5,33.2,30.18,North,353,0.0,0.0,95,0.00,,,0.00,Wunderground v.1.15,2017-02-20 12:15:00,
2017-02-20 07:20:00,34.4,33.1,30.18,North,353,0.0,0.0,95,0.00,,,0.00,Wunderground v.1.15,2017-02-20 12:20:00,
2017-02-20 07:30:00,34.4,33.4,30.18,North,353,0.0,0.0,96,0.00,,,0.00,Wunderground v.1.15,2017-02-20 12:30:00,
2017-02-20 07:35:00,34.5,33.5,30.19,North,353,0.0,0.0,96,0.00,,,0.00,Wunderground v.1.15,2017-02-20 12:35:00,
2017-02-20 07:40:00,34.5,33.5,30.19,North,353,0.0,0.0,96,0.00,,,0.00,Wunderground v.1.15,2017-02-20 12:40:00,
2017-02-20 07:45:00,34.6,33.6,30.19,North,353,0.0,0.0,96,0.00,,,0.00,Wunderground v.1.15,2017-02-20 12:45:00,
2017-02-20 07:50:00,34.8,33.8,30.19,North,353,0.0,0.0,96,0.00,,,0.00,Wunderground v.1.15,2017-02-20 12:50:00,
2017-02-20 07:55:00,35.0,34.0,30.20,North,353,0.0,0.0,96,0.00,,,0.00,Wunderground v.1.15,2017-02-20 12:55:00,
2017-02-20 08:00:00,35.3,34.3,30.20,North,353,0.0,0.0,96,0.00,,,0.00,Wunderground v.1.15,2017-02-20 13:00:00,
2017-02-20 08:10:00,36.0,35.0,30.21,North,353,0.0,0.0,96,0.00,,,0.00,Wunderground v.1.15,2017-02-20 13:10:00,
2017-02-20 08:15:00,36.7,35.9,30.21,North,353,0.0,0.0,97,0.00,,,0.00,Wunderground v.1.15,2017-02-20 13:15:00,
2017-02-20 08:20:00,37.4,36.6,30.21,North,353,0.0,0.0,97,0.00,,,0.00,Wunderground v.1.15,2017-02-20 13:20:00,
2017-02-20 08:30:00,39.7,38.9,30.21,North,353,0.0,0.0,97,0.00,,,0.00,Wunderground v.1.15,2017-02-20 13:30:00,
2017-02-20 08:35:00,41.2,40.4,30.21,North,353,0.0,0.0,97,0.00,,,0.00,Wunderground v.1.15,2017-02-20 13:35:00,
2017-02-20 08:40:00,42.4,41.6,30.21,North,353,0.0,0.0,97,0.00,,,0.00,Wunderground v.1.15,2017-02-20 13:40:00,
2017-02-20 08:45:00,43.4,42.1,30.21,North,353,0.0,0.0,95,0.00,,,0.00,Wunderground v.1.15,2017-02-20 13:45:00,
2017-02-20 08:50:00,44.8,43.5,30.20,East,84,0.0,0.0,95,0.00,,,0.00,Wunderground v.1.15,2017-02-20 13:50:00,
2017-02-20 09:00:00,48.7,45.6,30.20,ESE,110,0.0,0.0,89,0.00,,,0.00,Wunderground v.1.15,2017-02-20 14:00:00,
2017-02-20 09:10:00,50.8,46.1,30.20,ESE,102,0.0,0.0,84,0.00,,,0.00,Wunderground v.1.15,2017-02-20 14:10:00,
2017-02-20 09:15:00,51.4,46.1,30.20,ESE,102,0.0,0.0,82,0.00,,,0.00,Wunderground v.1.15,2017-02-20 14:15:00,
2017-02-20 09:20:00,52.1,46.1,30.21,North,6,0.0,0.0,80,0.00,,,0.00,Wunderground v.1.15,2017-02-20 14:20:00,
2017-02-20 09:25:00,52.7,46.4,30.21,North,354,0.0,0.0,79,0.00,,,0.00,Wunderground v.1.15,2017-02-20 14:25:00,
2017-02-20 09:30:00,53.8,47.8,30.21,NNE,22,0.0,0.0,80,0.00,,,0.00,Wunderground v.1.15,2017-02-20 14:30:00,
2017-02-20 09:40:00,56.1,49.3,30.22,NNE,14,0.0,0.0,78,0.00,,,0.00,Wunderground v.1.15,2017-02-20 14:40:00,
2017-02-20 09:45:00,57.1,47.8,30.22,NNW,342,0.0,0.0,71,0.00,,,0.00,Wunderground v.1.15,2017-02-20 14:45:00,
2017-02-20 09:50:00,57.8,48.1,30.22,NE,49,0.0,0.0,70,0.00,,,0.00,Wunderground v.1.15,2017-02-20 14:50:00,
2017-02-20 09:55:00,59.0,49.6,30.22,NNW,338,0.0,1.0,71,0.00,,,0.00,Wunderground v.1.15,2017-02-20 14:55:00,
2017-02-20 10:00:00,59.7,48.7,30.22,NNW,345,0.0,0.0,67,0.00,,,0.00,Wunderground v.1.15,2017-02-20 15:00:00,
2017-02-20 10:10:00,60.9,49.1,30.22,NNE,26,1.0,1.0,65,0.00,,,0.00,Wunderground v.1.15,2017-02-20 15:10:00,
2017-02-20 10:15:00,62.1,48.0,30.22,SE,134,0.0,1.0,60,0.00,,,0.00,Wunderground v.1.15,2017-02-20 15:15:00,
2017-02-20 10:20:00,62.8,48.7,30.22,ESE,104,1.0,1.0,60,0.00,,,0.00,Wunderground v.1.15,2017-02-20 15:20:00,
2017-02-20 10:25:00,63.3,47.8,30.21,ENE,60,1.0,1.0,57,0.00,,,0.00,Wunderground v.1.15,2017-02-20 15:25:00,
2017-02-20 10:30:00,63.5,48.0,30.21,ENE,77,1.0,1.0,57,0.00,,,0.00,Wunderground v.1.15,2017-02-20 15:30:00,
2017-02-20 10:35:00,63.7,47.7,30.21,ESE,117,1.0,2.0,56,0.00,,,0.00,Wunderground v.1.15,2017-02-20 15:35:00,
2017-02-20 10:45:00,65.1,48.0,30.20,North,4,1.0,2.0,54,0.00,,,0.00,Wunderground v.1.15,2017-02-20 15:45:00,
2017-02-20 10:50:00,65.9,47.8,30.20,NE,53,1.0,1.0,52,0.00,,,0.00,Wunderground v.1.15,2017-02-20 15:50:00,
2017-02-20 10:55:00,66.0,46.8,30.20,NE,53,2.0,2.0,50,0.00,,,0.00,Wunderground v.1.15,2017-02-20 15:55:00,
2017-02-20 11:00:00,66.7,48.0,30.20,WSW,237,1.0,1.0,51,0.00,,,0.00,Wunderground v.1.15,2017-02-20 16:00:00,
2017-02-20 11:10:00,67.7,46.2,30.20,East,97,1.0,1.0,46,0.00,,,0.00,Wunderground v.1.15,2017-02-20 16:10:00,
2017-02-20 11:15:00,68.0,47.6,30.20,NE,49,2.0,2.0,48,0.00,,,0.00,Wunderground v.1.15,2017-02-20 16:15:00,
2017-02-20 11:20:00,68.6,46.4,30.20,ESE,104,1.0,2.0,45,0.00,,,0.00,Wunderground v.1.15,2017-02-20 16:20:00,
2017-02-20 11:25:00,68.2,45.4,30.20,ESE,105,2.0,2.0,44,0.00,,,0.00,Wunderground v.1.15,2017-02-20 16:25:00,
2017-02-20 11:30:00,68.4,46.2,30.20,ENE,63,2.0,3.0,45,0.00,,,0.00,Wunderground v.1.15,2017-02-20 16:30:00,
2017-02-20 11:35:00,68.9,47.3,30.19,North,355,2.0,4.0,46,0.00,,,0.00,Wunderground v.1.15,2017-02-20 16:35:00,
2017-02-20 11:45:00,70.4,48.0,30.19,West,263,1.0,4.0,45,0.00,,,0.00,Wunderground v.1.15,2017-02-20 16:45:00,
2017-02-20 11:50:00,70.6,46.4,30.19,SSE,159,1.0,4.0,42,0.00,,,0.00,Wunderground v.1.15,2017-02-20 16:50:00,
2017-02-20 11:55:00,71.0,46.7,30.19,SW,224,1.0,4.0,42,0.00,,,0.00,Wunderground v.1.15,2017-02-20 16:55:00,
2017-02-20 12:00:00,70.7,45.2,30.19,ESE,110,2.0,2.0,40,0.00,,,0.00,Wunderground v.1.15,2017-02-20 17:00:00,
2017-02-20 12:15:00,71.0,46.1,30.17,ENE,65,2.0,2.0,41,0.00,,,0.00,Wunderground v.1.15,2017-02-20 17:15:00,
2017-02-20 12:25:00,71.6,43.9,30.17,ENE,58,2.0,2.0,37,0.00,,,0.00,Wunderground v.1.15,2017-02-20 17:25:00,
2017-02-20 12:30:00,72.1,42.2,30.17,ENE,67,1.0,1.0,34,0.00,,,0.00,Wunderground v.1.15,2017-02-20 17:30:00,
2017-02-20 12:35:00,72.1,43.7,30.17,NNE,24,1.0,6.0,36,0.00,,,0.00,Wunderground v.1.15,2017-02-20 17:35:00,
2017-02-20 12:40:00,72.7,44.9,30.17,ESE,121,1.0,1.0,37,0.00,,,0.00,Wunderground v.1.15,2017-02-20 17:40:00,
2017-02-20 12:45:00,72.8,42.8,30.17,SSE,147,1.0,6.0,34,0.00,,,0.00,Wunderground v.1.15,2017-02-20 17:45:00,
2017-02-20 12:55:00,71.9,42.8,30.16,SSW,206,2.0,6.0,35,0.00,,,0.00,Wunderground v.1.15,2017-02-20 17:55:00,
2017-02-20 13:00:00,71.8,43.4,30.16,WNW,301,2.0,2.0,36,0.00,,,0.00,Wunderground v.1.15,2017-02-20 18:00:00,
2017-02-20 13:10:00,72.6,43.4,30.15,SW,224,1.0,1.0,35,0.00,,,0.00,Wunderground v.1.15,2017-02-20 18:10:00,
2017-02-20 13:15:00,72.6,43.4,30.15,West,277,1.0,1.0,35,0.00,,,0.00,Wunderground v.1.15,2017-02-20 18:15:00,
2017-02-20 13:25:00,72.9,41.3,30.15,WSW,249,1.0,1.0,32,0.00,,,0.00,Wunderground v.1.15,2017-02-20 18:25:00,
2017-02-20 13:30:00,73.2,39.9,30.14,WSW,249,0.0,0.0,30,0.00,,,0.00,Wunderground v.1.15,2017-02-20 18:30:00,
2017-02-20 13:35:00,73.4,40.1,30.14,NNW,338,0.0,2.0,30,0.00,,,0.00,Wunderground v.1.15,2017-02-20 18:35:00,
2017-02-20 13:40:00,73.3,40.8,30.14,SE,141,1.0,5.0,31,0.00,,,0.00,Wunderground v.1.15,2017-02-20 18:40:00,
2017-02-20 13:45:00,72.8,41.2,30.14,ENE,60,1.0,5.0,32,0.00,,,0.00,Wunderground v.1.15,2017-02-20 18:45:00,
2017-02-20 13:50:00,73.0,40.6,30.14,NE,34,1.0,5.0,31,0.00,,,0.00,Wunderground v.1.15,2017-02-20 18:50:00,
2017-02-20 14:00:00,73.2,39.9,30.14,WNW,291,0.0,0.0,30,0.00,,,0.00,Wunderground v.1.15,2017-02-20 19:00:00,
2017-02-20 14:10:00,72.5,41.7,30.14,West,275,1.0,1.0,33,0.00,,,0.00,Wunderground v.1.15,2017-02-20 19:10:00,
2017-02-20 14:15:00,72.8,43.5,30.14,SSE,163,1.0,1.0,35,0.00,,,0.00,Wunderground v.1.15,2017-02-20 19:15:00,
2017-02-20 14:20:00,72.9,42.1,30.14,East,79,0.0,0.0,33,0.00,,,0.00,Wunderground v.1.15,2017-02-20 19:20:00,
2017-02-20 14:25:00,72.8,41.2,30.14,ESE,114,1.0,1.0,32,0.00,,,0.00,Wunderground v.1.15,2017-02-20 19:25:00,
2017-02-20 14:30:00,72.9,43.6,30.14,ENE,72,1.0,1.0,35,0.00,,,0.00,Wunderground v.1.15,2017-02-20 19:30:00,
2017-02-20 14:35:00,73.0,41.4,30.13,NNW,341,0.0,2.0,32,0.00,,,0.00,Wunderground v.1.15,2017-02-20 19:35:00,
2017-02-20 14:40:00,72.3,42.3,30.13,NNW,327,1.0,1.0,34,0.00,,,0.00,Wunderground v.1.15,2017-02-20 19:40:00,
2017-02-20 14:45:00,72.5,41.0,30.13,East,101,1.0,2.0,32,0.00,,,0.00,Wunderground v.1.15,2017-02-20 19:45:00,
2017-02-20 14:50:00,72.5,41.0,30.13,ESE,105,1.0,4.0,32,0.00,,,0.00,Wunderground v.1.15,2017-02-20 19:50:00,
2017-02-20 15:00:00,72.6,42.6,30.13,ENE,77,1.0,1.0,34,0.00,,,0.00,Wunderground v.1.15,2017-02-20 20:00:00,
2017-02-20 15:10:00,73.1,40.7,30.13,ENE,70,1.0,1.0,31,0.00,,,0.00,Wunderground v.1.15,2017-02-20 20:10:00,
2017-02-20 15:15:00,72.7,41.1,30.13,North,360,1.0,1.0,32,0.00,,,0.00,Wunderground v.1.15,2017-02-20 20:15:00,
2017-02-20 15:20:00,72.6,40.2,30.13,ESE,102,1.0,1.0,31,0.00,,,0.00,Wunderground v.1.15,2017-02-20 20:20:00,
2017-02-20 15:25:00,72.6,41.0,30.13,NW,309,1.0,1.0,32,0.00,,,0.00,Wunderground v.1.15,2017-02-20 20:25:00,
2017-02-20 15:35:00,72.8,41.2,30.13,WNW,301,0.0,4.0,32,0.00,,,0.00,Wunderground v.1.15,2017-02-20 20:35:00,
2017-02-20 15:40:00,73.1,41.5,30.13,WNW,301,0.0,4.0,32,0.00,,,0.00,Wunderground v.1.15,2017-02-20 20:40:00,
2017-02-20 15:45:00,73.3,42.4,30.13,SW,236,0.0,4.0,33,0.00,,,0.00,Wunderground v.1.15,2017-02-20 20:45:00,
2017-02-20 15:50:00,73.2,43.1,30.13,WNW,287,1.0,4.0,34,0.00,,,0.00,Wunderground v.1.15,2017-02-20 20:50:00,
2017-02-20 15:55:00,72.6,42.6,30.13,NNW,333,1.0,4.0,34,0.00,,,0.00,Wunderground v.1.15,2017-02-20 20:55:00,
2017-02-20 16:00:00,72.2,44.5,30.13,SW,219,2.0,2.0,37,0.00,,,0.00,Wunderground v.1.15,2017-02-20 21:00:00,
2017-02-20 16:10:00,72.9,40.5,30.13,ESE,115,0.0,0.0,31,0.00,,,0.00,Wunderground v.1.15,2017-02-20 21:10:00,
2017-02-20 16:15:00,73.5,41.0,30.13,ESE,113,0.0,0.0,31,0.00,,,0.00,Wunderground v.1.15,2017-02-20 21:15:00,
2017-02-20 16:20:00,73.4,41.7,30.13,North,4,0.0,0.0,32,0.00,,,0.00,Wunderground v.1.15,2017-02-20 21:20:00,